Time;durP1;ratioP1;P1;durP2;ratioP2;P2;SDS_P1;SDS_P2;PMS_P1;PMS_P2;Temp;Humidity;BMP_temperature;BMP_pressure;BME280_temperature;BME280_humidity;BME280_pressure;Samples;Min_cycle;Max_cycle;Signal;HPM_P1;HPM_P2
2023/08/06 00:00:45;;;;;;;0.10;0.10;;;;;;;23.00;65.88;100585.41;5030812;28;20405;-77
2023/08/06 00:03:10;;;;;;;0.10;0.10;;;;;;;22.79;66.52;100573.38;5012886;28;20041;-77
2023/08/06 00:05:35;;;;;;;0.10;0.10;;;;;;;22.68;66.68;100578.28;5030685;28;20029;-77
2023/08/06 00:08:01;;;;;;;0.10;0.10;;;;;;;22.70;66.64;100580.72;5030967;28;20029;-77
2023/08/06 00:10:26;;;;;;;0.10;0.10;;;;;;;22.73;66.64;100569.13;5031457;28;20428;-76
2023/08/06 00:12:52;;;;;;;0.10;0.10;;;;;;;22.59;67.41;100585.63;5030484;28;20045;-77
2023/08/06 00:15:17;;;;;;;0.10;0.10;;;;;;;22.70;67.02;100575.25;5030658;28;20034;-76
2023/08/06 00:17:43;;;;;;;0.10;0.10;;;;;;;22.99;66.15;100572.03;5030700;28;20026;-77
2023/08/06 00:20:08;;;;;;;0.10;0.10;;;;;;;23.22;65.21;100579.91;5030458;28;20382;-76
2023/08/06 00:22:35;;;;;;;0.10;0.10;;;;;;;23.03;65.94;100570.28;5030995;28;20029;-77
2023/08/06 00:25:00;;;;;;;0.10;0.10;;;;;;;23.04;65.38;100569.97;5030530;28;20025;-77
2023/08/06 00:27:26;;;;;;;0.15;0.15;;;;;;;23.07;64.98;100572.09;5030282;28;20061;-76
2023/08/06 00:29:52;;;;;;;0.10;0.10;;;;;;;23.18;65.51;100572.63;5012639;28;20079;-76
2023/08/06 00:32:17;;;;;;;0.00;0.00;;;;;;;23.14;65.07;100564.22;5030630;28;20030;-77
2023/08/06 00:34:43;;;;;;;0.10;0.10;;;;;;;23.34;64.62;100569.19;5012192;28;20057;-75
2023/08/06 00:37:08;;;;;;;0.10;0.10;;;;;;;23.32;64.89;100574.19;5012984;28;20376;-76
2023/08/06 00:39:34;;;;;;;0.10;0.10;;;;;;;23.35;64.62;100579.00;5030216;28;20524;-76
2023/08/06 00:41:59;;;;;;;0.10;0.10;;;;;;;23.17;65.30;100571.81;5030121;28;20026;-76
2023/08/06 00:44:25;;;;;;;0.10;0.10;;;;;;;23.10;65.10;100563.22;5030082;28;20040;-76
2023/08/06 00:46:50;;;;;;;0.10;0.10;;;;;;;23.30;64.71;100567.34;5030250;28;20111;-76
2023/08/06 00:49:16;;;;;;;0.10;0.10;;;;;;;23.34;64.52;100571.13;5030646;28;20084;-76
2023/08/06 00:51:43;;;;;;;0.05;0.05;;;;;;;23.26;64.45;100567.19;5030152;28;20092;-77
2023/08/06 00:54:09;;;;;;;0.05;0.05;;;;;;;23.11;64.45;100572.25;5030204;28;20068;-77
2023/08/06 00:56:38;;;;;;;0.10;0.10;;;;;;;23.25;65.06;100573.00;5029437;28;20042;-77
2023/08/06 00:59:05;;;;;;;0.00;0.00;;;;;;;23.24;64.40;100574.91;5025376;28;20053;-77
2023/08/06 01:01:31;;;;;;;0.05;0.05;;;;;;;23.39;63.83;100571.78;5012530;28;20417;-77
2023/08/06 01:03:56;;;;;;;0.10;0.10;;;;;;;23.26;64.15;100575.41;5030036;28;20442;-76
2023/08/06 01:06:39;;;;;;;0.00;0.00;;;;;;;23.26;64.29;100561.69;5029959;28;20036;-76
2023/08/06 01:09:16;;;;;;;0.05;0.05;;;;;;;23.23;64.42;100564.25;5030032;28;20042;-76
2023/08/06 01:11:59;;;;;;;0.10;0.10;;;;;;;23.11;65.40;100573.09;5029864;28;20489;-76
2023/08/06 01:14:42;;;;;;;0.10;0.10;;;;;;;23.34;64.42;100565.63;5029777;28;20033;-76
2023/08/06 01:17:09;;;;;;;0.10;0.10;;;;;;;23.26;64.61;100569.91;5029655;28;20038;-76
2023/08/06 01:19:34;;;;;;;0.10;0.10;;;;;;;23.30;64.20;100561.88;5029964;28;20588;-76
2023/08/06 01:22:00;;;;;;;0.10;0.10;;;;;;;23.05;65.03;100566.13;5029520;28;20033;-77
2023/08/06 01:24:25;;;;;;;0.10;0.10;;;;;;;23.24;64.00;100565.88;5029395;28;20087;-77
2023/08/06 01:27:14;;;;;;;0.10;0.10;;;;;;;23.47;63.68;100556.47;5032474;28;20037;-77
2023/08/06 01:29:50;;;;;;;0.10;0.10;;;;;;;23.52;63.93;100570.06;5029424;28;20033;-77
2023/08/06 01:32:16;;;;;;;0.10;0.10;;;;;;;23.38;64.10;100564.69;5030151;28;20052;-77
2023/08/06 01:34:45;;;;;;;0.10;0.10;;;;;;;23.39;64.32;100557.25;5029241;28;20041;-76
2023/08/06 01:37:11;;;;;;;0.10;0.10;;;;;;;23.36;64.04;100553.22;5029923;28;20022;-76
2023/08/06 01:39:36;;;;;;;0.05;0.05;;;;;;;23.22;64.44;100559.88;5029628;28;20120;-76
2023/08/06 01:42:02;;;;;;;0.00;0.00;;;;;;;23.24;64.63;100554.91;5029255;28;20687;-77
2023/08/06 01:44:27;;;;;;;0.10;0.10;;;;;;;23.39;64.34;100551.75;5028832;28;20041;-77
2023/08/06 01:46:53;;;;;;;0.10;0.10;;;;;;;23.43;63.81;100555.47;5029140;28;20036;-77
2023/08/06 01:49:18;;;;;;;0.10;0.10;;;;;;;23.40;63.75;100550.66;5011748;28;20021;-77
2023/08/06 01:51:43;;;;;;;0.08;0.08;;;;;;;23.42;63.89;100556.63;5012555;28;20033;-77
2023/08/06 01:54:09;;;;;;;0.10;0.10;;;;;;;23.35;64.82;100556.28;5028880;28;20416;-77
2023/08/06 01:56:34;;;;;;;0.10;0.10;;;;;;;23.42;64.36;100549.22;5028527;28;20044;-78
2023/08/06 01:59:00;;;;;;;0.10;0.10;;;;;;;23.46;63.63;100550.19;5029339;28;20489;-77
2023/08/06 02:01:25;;;;;;;0.10;0.10;;;;;;;23.44;64.29;100543.41;5029469;28;20033;-77
2023/08/06 02:03:50;;;;;;;0.10;0.10;;;;;;;23.31;64.24;100560.78;5010753;28;20033;-77
2023/08/06 02:06:16;;;;;;;0.00;0.00;;;;;;;23.48;64.26;100549.88;5029224;28;20485;-76
2023/08/06 02:08:41;;;;;;;0.00;0.00;;;;;;;23.50;63.47;100550.38;5027957;28;20034;-77
2023/08/06 02:11:07;;;;;;;0.10;0.10;;;;;;;23.36;63.63;100542.25;5010434;28;20033;-76
2023/08/06 02:13:32;;;;;;;0.00;0.00;;;;;;;23.41;64.58;100544.03;5029185;28;20033;-77
2023/08/06 02:15:57;;;;;;;0.10;0.10;;;;;;;23.52;63.66;100542.63;5028817;28;20033;-77
2023/08/06 02:18:23;;;;;;;0.10;0.10;;;;;;;23.53;63.59;100534.06;5029033;28;20480;-77
2023/08/06 02:20:58;;;;;;;0.00;0.00;;;;;;;23.48;64.15;100541.66;5028727;28;20056;-77
2023/08/06 02:23:24;;;;;;;0.10;0.10;;;;;;;23.50;63.67;100536.66;5028480;28;20037;-76
2023/08/06 02:26:00;;;;;;;0.10;0.10;;;;;;;23.66;63.61;100539.75;5031650;28;20048;-75
2023/08/06 02:28:25;;;;;;;0.00;0.00;;;;;;;23.41;64.06;100539.34;5029085;28;20079;-77
2023/08/06 02:30:51;;;;;;;0.00;0.00;;;;;;;23.48;63.78;100536.16;5028754;28;20033;-76
2023/08/06 02:33:17;;;;;;;0.10;0.10;;;;;;;23.51;63.90;100535.50;5028226;28;20509;-77
2023/08/06 02:35:42;;;;;;;0.10;0.10;;;;;;;23.62;63.49;100538.78;5028380;28;20049;-77
2023/08/06 02:38:07;;;;;;;0.10;0.10;;;;;;;23.48;64.40;100534.22;5010440;28;20036;-76
2023/08/06 02:40:33;;;;;;;0.10;0.10;;;;;;;23.50;63.77;100531.97;5028863;28;20030;-78
2023/08/06 02:42:58;;;;;;;0.10;0.10;;;;;;;23.47;63.70;100535.34;5028074;28;20037;-78
2023/08/06 02:45:23;;;;;;;0.10;0.10;;;;;;;23.48;64.01;100528.75;5028279;28;20095;-77
2023/08/06 02:47:49;;;;;;;0.10;0.10;;;;;;;23.52;63.46;100526.16;5028517;28;20496;-77
2023/08/06 02:50:14;;;;;;;0.10;0.10;;;;;;;23.45;63.41;100526.63;5028395;28;20044;-76
2023/08/06 02:52:40;;;;;;;0.10;0.10;;;;;;;23.61;62.99;100526.16;5028189;28;20032;-75
2023/08/06 02:55:06;;;;;;;0.10;0.10;;;;;;;23.42;63.84;100516.31;5028437;28;20032;-76
2023/08/06 02:57:31;;;;;;;0.10;0.10;;;;;;;23.47;63.57;100513.41;5028659;28;20029;-76
2023/08/06 02:59:57;;;;;;;0.10;0.10;;;;;;;23.42;63.11;100516.31;5028163;28;20037;-76
2023/08/06 03:02:22;;;;;;;0.10;0.10;;;;;;;23.17;63.90;100514.25;5028459;28;20197;-76
2023/08/06 03:04:48;;;;;;;0.10;0.10;;;;;;;23.09;64.72;100515.03;5028348;28;20083;-75
2023/08/06 03:07:13;;;;;;;0.17;0.17;;;;;;;23.32;64.01;100513.84;5028695;28;20381;-76
2023/08/06 03:09:38;;;;;;;0.10;0.10;;;;;;;23.33;63.97;100517.41;5028036;28;20037;-76
2023/08/06 03:12:04;;;;;;;0.10;0.10;;;;;;;23.47;63.26;100518.06;5028317;28;20493;-76
2023/08/06 03:14:30;;;;;;;0.10;0.10;;;;;;;23.24;63.76;100509.09;5009670;28;20034;-76
2023/08/06 03:16:55;;;;;;;0.10;0.10;;;;;;;23.27;63.50;100513.16;5028173;28;20532;-76
2023/08/06 03:19:21;;;;;;;0.10;0.10;;;;;;;23.11;63.61;100509.22;5028967;28;20021;-76
2023/08/06 03:21:46;;;;;;;0.10;0.10;;;;;;;23.16;64.26;100517.28;5031687;28;20047;-76
2023/08/06 03:24:13;;;;;;;0.10;0.10;;;;;;;23.22;63.87;100510.53;5031569;28;20099;-75
2023/08/06 03:26:39;;;;;;;0.10;0.10;;;;;;;22.86;64.28;100513.44;5031781;28;20033;-76
2023/08/06 03:29:04;;;;;;;0.10;0.10;;;;;;;22.85;64.38;100505.53;5031775;28;20378;-76
2023/08/06 03:31:29;;;;;;;0.10;0.10;;;;;;;23.09;63.90;100519.69;5032197;28;20021;-76
2023/08/06 03:33:55;;;;;;;0.10;0.10;;;;;;;23.14;63.53;100520.34;5031463;28;20464;-77
2023/08/06 03:36:20;;;;;;;0.10;0.10;;;;;;;23.06;63.70;100526.59;5031585;28;20496;-77
2023/08/06 03:38:46;;;;;;;0.10;0.10;;;;;;;22.94;64.47;100520.88;5031727;28;20036;-77
2023/08/06 03:41:11;;;;;;;0.10;0.10;;;;;;;23.00;64.32;100518.81;5031328;28;20036;-76
2023/08/06 03:43:36;;;;;;;0.17;0.17;;;;;;;22.89;64.24;100512.81;5031566;28;20534;-77
2023/08/06 03:46:02;;;;;;;0.10;0.10;;;;;;;22.68;65.29;100514.47;5031575;28;20017;-77
2023/08/06 03:48:27;;;;;;;0.10;0.10;;;;;;;22.72;64.71;100515.47;5031013;28;20033;-76
2023/08/06 03:50:52;;;;;;;0.10;0.10;;;;;;;22.89;64.34;100512.00;5031117;28;20037;-77
2023/08/06 03:53:18;;;;;;;0.10;0.10;;;;;;;22.48;65.95;100512.22;5013446;28;20044;-76
2023/08/06 03:55:43;;;;;;;0.10;0.10;;;;;;;22.88;64.20;100519.41;5030943;28;20025;-75
2023/08/06 03:58:08;;;;;;;0.20;0.20;;;;;;;22.58;64.76;100509.25;5031151;28;20029;-77
2023/08/06 04:00:34;;;;;;;0.10;0.10;;;;;;;22.62;64.94;100507.50;5030689;28;20037;-75
2023/08/06 04:02:59;;;;;;;0.15;0.15;;;;;;;22.72;65.04;100506.44;5028320;28;20409;-76
2023/08/06 04:05:25;;;;;;;0.10;0.10;;;;;;;22.44;65.46;100516.69;5030241;28;20085;-76
2023/08/06 04:07:50;;;;;;;0.08;0.08;;;;;;;22.68;65.00;100515.25;5030538;28;20472;-76
2023/08/06 04:10:15;;;;;;;0.10;0.10;;;;;;;23.00;63.41;100511.41;5012881;28;20091;-76
2023/08/06 04:12:41;;;;;;;0.10;0.10;;;;;;;22.37;66.38;100508.09;5029907;28;20033;-77
2023/08/06 04:15:06;;;;;;;0.10;0.10;;;;;;;22.47;65.57;100519.63;5011887;28;20044;-77
2023/08/06 04:17:32;;;;;;;0.10;0.10;;;;;;;22.65;65.27;100515.09;5030651;28;20025;-76
2023/08/06 04:19:58;;;;;;;0.10;0.10;;;;;;;22.89;64.79;100518.31;5030645;28;20485;-76
2023/08/06 04:22:24;;;;;;;0.10;0.10;;;;;;;23.06;64.00;100514.81;5030781;28;20071;-76
2023/08/06 04:24:49;;;;;;;0.10;0.10;;;;;;;22.81;65.07;100515.50;5012315;28;20029;-77
2023/08/06 04:27:16;;;;;;;0.10;0.10;;;;;;;22.83;64.85;100514.06;5030492;28;20123;-77
2023/08/06 04:29:42;;;;;;;0.10;0.10;;;;;;;22.15;67.48;100521.78;5030007;28;20033;-76
2023/08/06 04:32:09;;;;;;;0.10;0.10;;;;;;;22.62;65.67;100516.50;5029616;28;20037;-76
2023/08/06 04:34:35;;;;;;;0.10;0.10;;;;;;;22.12;67.87;100519.66;5030748;28;20228;-76
2023/08/06 04:37:02;;;;;;;0.20;0.20;;;;;;;22.31;67.17;100523.06;5030290;28;20055;-76
2023/08/06 04:39:27;;;;;;;0.10;0.10;;;;;;;23.04;64.12;100528.84;5028558;28;20037;-77
2023/08/06 04:41:52;;;;;;;0.10;0.10;;;;;;;23.10;64.49;100529.50;5030317;28;20032;-77
2023/08/06 04:44:18;;;;;;;0.10;0.10;;;;;;;23.19;64.07;100527.63;5029440;28;20033;-76
2023/08/06 04:46:43;;;;;;;0.10;0.10;;;;;;;23.19;63.86;100531.16;5030098;28;20033;-75
2023/08/06 04:49:09;;;;;;;0.10;0.10;;;;;;;22.86;65.44;100540.84;5030601;28;20064;-77
2023/08/06 04:51:34;;;;;;;0.10;0.10;;;;;;;22.99;64.88;100539.13;5030299;28;20533;-76
2023/08/06 04:53:59;;;;;;;0.10;0.10;;;;;;;22.73;65.74;100535.44;5030065;28;20033;-77
2023/08/06 04:56:25;;;;;;;0.10;0.10;;;;;;;22.02;67.66;100530.84;5011837;28;20041;-77
2023/08/06 04:58:51;;;;;;;0.10;0.10;;;;;;;22.56;65.95;100527.91;5029688;28;20037;-77
2023/08/06 05:01:16;;;;;;;0.10;0.10;;;;;;;22.55;66.24;100540.78;5012499;28;20391;-76
2023/08/06 05:03:41;;;;;;;0.10;0.10;;;;;;;22.54;66.52;100535.63;5029665;28;20041;-76
2023/08/06 05:06:07;;;;;;;0.08;0.08;;;;;;;23.05;64.67;100541.44;5029902;28;20036;-77
2023/08/06 05:08:32;;;;;;;0.10;0.10;;;;;;;23.26;63.66;100547.97;5029856;28;20038;-77
2023/08/06 05:10:58;;;;;;;0.17;0.17;;;;;;;23.12;64.14;100541.78;5029833;28;20033;-77
2023/08/06 05:13:23;;;;;;;0.10;0.10;;;;;;;23.02;64.55;100547.53;5029816;28;20049;-76
2023/08/06 05:15:49;;;;;;;0.10;0.10;;;;;;;23.25;63.57;100548.31;5029775;28;20513;-77
2023/08/06 05:18:14;;;;;;;0.10;0.10;;;;;;;22.82;65.54;100544.53;5029699;28;20524;-76
2023/08/06 05:20:41;;;;;;;0.10;0.10;;;;;;;23.24;64.20;100547.50;5029485;28;20045;-76
2023/08/06 05:23:06;;;;;;;0.10;0.10;;;;;;;23.13;63.64;100545.34;5029269;28;20033;-76
2023/08/06 05:25:34;;;;;;;0.10;0.10;;;;;;;23.17;64.33;100540.84;5029931;28;20044;-76
2023/08/06 05:28:01;;;;;;;0.10;0.10;;;;;;;22.99;64.12;100550.09;5029329;28;20040;-76
2023/08/06 05:30:27;;;;;;;0.10;0.10;;;;;;;23.28;63.49;100558.63;5028943;28;20041;-75
2023/08/06 05:32:52;;;;;;;0.10;0.10;;;;;;;23.43;63.34;100555.47;5029232;28;20045;-75
2023/08/06 05:35:17;;;;;;;0.10;0.10;;;;;;;23.34;63.81;100550.00;5029069;28;20034;-75
2023/08/06 05:37:43;;;;;;;0.10;0.10;;;;;;;23.19;63.83;100555.84;5029056;28;20380;-75
2023/08/06 05:40:08;;;;;;;0.10;0.10;;;;;;;23.36;63.40;100552.41;5029622;28;20021;-76
2023/08/06 05:42:34;;;;;;;0.10;0.10;;;;;;;23.28;63.95;100553.97;5028823;28;20045;-76
2023/08/06 05:44:59;;;;;;;0.10;0.10;;;;;;;23.38;63.88;100548.22;5028975;28;20033;-76
2023/08/06 05:47:24;;;;;;;0.10;0.10;;;;;;;23.16;64.39;100561.97;5028942;28;20034;-76
2023/08/06 05:49:50;;;;;;;0.10;0.10;;;;;;;23.52;63.13;100557.16;5028821;28;20017;-76
2023/08/06 05:52:15;;;;;;;0.10;0.10;;;;;;;23.22;64.11;100568.94;5029688;28;20018;-76
2023/08/06 05:54:41;;;;;;;0.10;0.10;;;;;;;23.33;63.85;100558.53;5028737;28;20037;-76
2023/08/06 05:57:06;;;;;;;0.10;0.10;;;;;;;23.24;64.30;100568.63;5033021;28;20048;-77
2023/08/06 05:59:32;;;;;;;0.10;0.10;;;;;;;23.34;63.80;100571.13;5030166;28;20037;-76
2023/08/06 06:01:57;;;;;;;0.10;0.10;;;;;;;23.48;63.44;100567.16;5028888;28;20041;-75
2023/08/06 06:04:23;;;;;;;0.10;0.10;;;;;;;23.51;64.54;100573.91;5029218;28;20112;-77
2023/08/06 06:06:48;;;;;;;0.00;0.00;;;;;;;23.04;65.39;100578.19;5028745;28;20033;-76
2023/08/06 06:09:13;;;;;;;0.10;0.10;;;;;;;23.33;65.25;100572.25;5028755;28;20396;-76
2023/08/06 06:11:39;;;;;;;0.10;0.10;;;;;;;23.68;63.24;100578.66;5028623;28;20041;-76
2023/08/06 06:14:04;;;;;;;0.10;0.10;;;;;;;23.74;63.66;100569.97;5028606;28;20030;-75
2023/08/06 06:16:30;;;;;;;0.10;0.10;;;;;;;23.85;63.72;100581.44;5029283;28;20438;-76
2023/08/06 06:18:57;;;;;;;0.08;0.08;;;;;;;23.97;63.96;100578.88;5028060;28;20091;-76
2023/08/06 06:21:22;;;;;;;0.10;0.10;;;;;;;24.01;63.39;100579.88;5009440;28;20110;-77
2023/08/06 06:23:48;;;;;;;0.10;0.10;;;;;;;24.16;63.47;100580.25;5010754;28;20076;-76
2023/08/06 06:26:13;;;;;;;0.10;0.10;;;;;;;23.97;63.18;100582.44;5028463;28;20398;-76
2023/08/06 06:28:38;;;;;;;0.10;0.10;;;;;;;23.84;64.09;100586.13;5027874;28;20040;-75
2023/08/06 06:31:04;;;;;;;0.10;0.10;;;;;;;23.36;64.63;100588.06;5028519;28;20021;-77
2023/08/06 06:33:29;;;;;;;0.00;0.00;;;;;;;23.77;64.54;100585.78;5026809;28;20049;-76
2023/08/06 06:35:55;;;;;;;0.10;0.10;;;;;;;23.68;63.98;100586.88;5027645;28;20501;-76
2023/08/06 06:38:20;;;;;;;0.10;0.10;;;;;;;24.20;62.13;100591.38;5027181;28;20041;-76
2023/08/06 06:40:55;;;;;;;0.10;0.10;;;;;;;24.28;62.89;100594.16;5009942;28;20037;-75
2023/08/06 06:43:21;;;;;;;0.00;0.00;;;;;;;23.72;63.46;100585.13;5025234;28;20068;-76
2023/08/06 06:45:47;;;;;;;0.00;0.00;;;;;;;23.01;66.44;100592.53;4994925;28;20508;-76
2023/08/06 06:48:12;;;;;;;0.10;0.10;;;;;;;22.86;67.14;100589.38;5027343;28;20041;-76
2023/08/06 06:50:39;;;;;;;0.10;0.10;;;;;;;23.59;65.10;100586.84;5027528;28;20084;-76
2023/08/06 06:53:04;;;;;;;0.10;0.10;;;;;;;23.80;64.36;100589.84;5028169;28;20121;-75
2023/08/06 06:55:29;;;;;;;0.00;0.00;;;;;;;23.29;66.07;100595.91;5030591;28;20140;-76
2023/08/06 06:57:55;;;;;;;0.10;0.10;;;;;;;23.61;65.66;100592.84;5032256;28;20034;-76
2023/08/06 07:00:20;;;;;;;0.00;0.00;;;;;;;24.35;63.88;100588.19;5031956;28;20068;-76
2023/08/06 07:02:46;;;;;;;0.10;0.10;;;;;;;25.01;61.88;100597.84;5032390;28;20042;-76
2023/08/06 07:05:11;;;;;;;0.00;0.00;;;;;;;24.64;62.93;100601.25;5025849;28;20547;-76
2023/08/06 07:07:37;;;;;;;0.10;0.10;;;;;;;24.88;61.98;100598.84;5032516;28;20033;-76
2023/08/06 07:10:03;;;;;;;0.00;0.00;;;;;;;24.46;62.35;100594.16;5032383;28;20099;-76
2023/08/06 07:12:28;;;;;;;0.10;0.10;;;;;;;24.34;62.65;100603.84;5032070;28;20120;-76
2023/08/06 07:14:53;;;;;;;0.00;0.00;;;;;;;23.95;64.07;100595.69;5032122;28;20397;-76
2023/08/06 07:17:19;;;;;;;0.00;0.00;;;;;;;24.58;62.57;100597.88;5031518;28;20037;-76
2023/08/06 07:19:44;;;;;;;0.10;0.10;;;;;;;24.69;62.33;100603.81;5013523;28;20048;-73
2023/08/06 07:22:10;;;;;;;0.05;0.05;;;;;;;24.55;62.55;100604.00;5032405;28;20029;-74
2023/08/06 07:24:35;;;;;;;0.08;0.08;;;;;;;24.39;63.18;100616.63;5031726;28;20038;-74
2023/08/06 07:27:01;;;;;;;0.08;0.08;;;;;;;24.03;64.75;100608.66;5032213;28;20527;-73
2023/08/06 07:29:26;;;;;;;0.00;0.00;;;;;;;24.93;61.58;100609.66;5031168;28;20029;-73
2023/08/06 07:31:52;;;;;;;0.03;0.03;;;;;;;24.47;62.58;100617.75;5031462;28;20392;-72
2023/08/06 07:34:17;;;;;;;0.00;0.00;;;;;;;23.76;65.41;100608.06;5031687;28;20041;-73
2023/08/06 07:36:46;;;;;;;0.03;0.03;;;;;;;24.14;64.13;100611.88;5028891;28;20096;-73
2023/08/06 07:39:11;;;;;;;0.00;0.00;;;;;;;24.63;62.10;100611.44;5029855;28;20037;-73
2023/08/06 07:41:37;;;;;;;0.00;0.00;;;;;;;24.50;62.85;100612.41;5027970;28;20509;-73
2023/08/06 07:44:02;;;;;;;0.00;0.00;;;;;;;24.96;61.10;100622.78;5031147;28;20432;-74
2023/08/06 07:46:27;;;;;;;0.00;0.00;;;;;;;24.94;61.83;100619.53;5030824;28;20017;-74
2023/08/06 07:48:53;;;;;;;0.00;0.00;;;;;;;24.73;61.68;100624.06;5031383;28;20080;-74
2023/08/06 07:51:18;;;;;;;0.10;0.10;;;;;;;24.84;60.85;100623.44;5030953;28;20037;-74
2023/08/06 07:53:45;;;;;;;0.10;0.10;;;;;;;25.04;60.71;100617.22;5031391;28;20037;-74
2023/08/06 07:56:10;;;;;;;0.00;0.00;;;;;;;24.85;62.97;100622.28;5030977;28;20041;-74
2023/08/06 07:58:35;;;;;;;0.10;0.10;;;;;;;25.31;60.65;100612.47;5048495;28;20029;-73
2023/08/06 08:01:01;;;;;;;0.00;0.00;;;;;;;24.20;64.61;100616.09;5050869;28;20032;-74
2023/08/06 08:03:26;;;;;;;0.00;0.00;;;;;;;24.50;62.89;100623.41;5051087;28;20041;-74
2023/08/06 08:05:57;;;;;;;0.10;0.10;;;;;;;24.89;61.37;100622.44;5032248;28;20037;-74
2023/08/06 08:08:22;;;;;;;0.00;0.00;;;;;;;23.63;65.69;100617.19;5018066;28;20061;-72
2023/08/06 08:10:48;;;;;;;0.00;0.00;;;;;;;24.69;62.01;100621.13;4999060;28;20069;-72
2023/08/06 08:13:13;;;;;;;0.00;0.00;;;;;;;24.42;63.47;100622.28;5030873;28;20245;-74
2023/08/06 08:15:38;;;;;;;0.10;0.10;;;;;;;24.16;63.78;100621.44;5020971;28;20100;-74
2023/08/06 08:18:04;;;;;;;0.10;0.10;;;;;;;24.80;62.18;100621.66;5021097;28;20504;-74
2023/08/06 08:20:31;;;;;;;0.00;0.00;;;;;;;24.28;63.50;100624.34;5019773;28;20034;-74
2023/08/06 08:22:58;;;;;;;0.00;0.00;;;;;;;24.05;63.81;100616.56;5023927;28;20029;-74
2023/08/06 08:25:24;;;;;;;0.10;0.10;;;;;;;24.38;62.86;100631.47;5021215;28;20095;-73
2023/08/06 08:27:49;;;;;;;0.00;0.00;;;;;;;24.56;62.54;100621.31;5019794;28;20037;-73
2023/08/06 08:30:15;;;;;;;0.00;0.00;;;;;;;24.06;63.60;100620.91;5022504;28;20026;-74
2023/08/06 08:32:40;;;;;;;0.00;0.00;;;;;;;24.28;63.12;100623.53;5019894;28;20038;-73
2023/08/06 08:35:05;;;;;;;0.05;0.05;;;;;;;24.67;61.92;100637.13;5029850;28;20501;-73
2023/08/06 08:37:31;;;;;;;0.00;0.00;;;;;;;24.83;61.13;100631.97;5030574;28;20025;-72
2023/08/06 08:39:56;;;;;;;0.03;0.03;;;;;;;23.90;64.14;100633.47;5030441;28;20141;-72
2023/08/06 08:42:22;;;;;;;0.00;0.00;;;;;;;24.96;60.97;100639.25;5012329;28;20037;-72
2023/08/06 08:44:47;;;;;;;0.10;0.10;;;;;;;24.31;63.47;100636.66;5029732;28;20034;-72
2023/08/06 08:47:16;;;;;;;0.10;0.10;;;;;;;23.67;65.67;100632.72;5030041;28;20284;-72
2023/08/06 08:49:42;;;;;;;0.10;0.10;;;;;;;23.94;64.81;100629.75;5013089;28;20056;-72
2023/08/06 08:52:12;;;;;;;0.10;0.10;;;;;;;24.30;63.25;100629.53;5030981;28;20532;-72
2023/08/06 08:54:39;;;;;;;0.10;0.10;;;;;;;24.10;64.13;100630.13;5030493;28;20312;-72
2023/08/06 08:57:05;;;;;;;0.10;0.10;;;;;;;24.26;64.18;100632.09;5029878;28;20522;-71
2023/08/06 08:59:33;;;;;;;0.10;0.10;;;;;;;24.43;64.30;100639.56;5029844;28;20141;-72
2023/08/06 09:02:00;;;;;;;0.10;0.10;;;;;;;23.92;64.38;100633.94;5029678;28;20464;-73
2023/08/06 09:04:27;;;;;;;0.00;0.00;;;;;;;24.47;61.87;100637.78;5030359;28;20013;-71
2023/08/06 09:06:56;;;;;;;0.05;0.05;;;;;;;24.62;61.43;100648.31;5029664;28;20029;-72
2023/08/06 09:09:37;;;;;;;0.10;0.10;;;;;;;25.11;61.48;100647.00;5027555;28;20041;-72
2023/08/06 09:12:14;;;;;;;0.00;0.00;;;;;;;25.14;61.12;100638.91;5027247;28;20124;-72
2023/08/06 09:14:40;;;;;;;0.10;0.10;;;;;;;24.91;61.58;100644.91;5029295;28;20033;-72
2023/08/06 09:17:06;;;;;;;0.03;0.03;;;;;;;24.06;64.24;100643.69;5029108;28;20043;-72
2023/08/06 09:19:31;;;;;;;0.00;0.00;;;;;;;25.05;61.20;100653.78;5029814;28;20491;-71
2023/08/06 09:21:57;;;;;;;0.00;0.00;;;;;;;24.73;62.96;100649.63;5026599;28;20026;-71
2023/08/06 09:24:22;;;;;;;0.00;0.00;;;;;;;24.96;61.05;100655.75;5029529;28;20311;-71
2023/08/06 09:26:48;;;;;;;0.00;0.00;;;;;;;24.25;64.30;100659.91;5008995;28;20045;-72
2023/08/06 09:29:14;;;;;;;0.00;0.00;;;;;;;24.90;62.03;100655.09;5029434;28;20040;-72
2023/08/06 09:31:52;;;;;;;0.00;0.00;;;;;;;25.24;61.14;100663.31;5029283;28;20064;-72
2023/08/06 09:34:20;;;;;;;0.00;0.00;;;;;;;25.32;59.97;100661.66;5026620;28;20038;-72
2023/08/06 09:36:56;;;;;;;0.00;0.00;;;;;;;25.27;60.91;100659.09;5020068;28;20136;-72
2023/08/06 09:39:31;;;;;;;0.00;0.00;;;;;;;24.66;61.87;100670.44;5020367;28;20057;-72
2023/08/06 09:41:58;;;;;;;0.00;0.00;;;;;;;24.65;61.61;100674.34;5010512;28;20523;-72
2023/08/06 09:44:26;;;;;;;0.00;0.00;;;;;;;24.76;62.75;100668.22;5023426;28;20041;-72
2023/08/06 09:46:57;;;;;;;0.10;0.10;;;;;;;25.37;61.16;100671.69;5018802;28;20032;-72
2023/08/06 09:49:28;;;;;;;0.00;0.00;;;;;;;25.02;62.25;100668.22;5020535;28;20052;-72
2023/08/06 09:51:55;;;;;;;0.00;0.00;;;;;;;25.72;60.01;100671.28;5019756;28;20065;-73
2023/08/06 09:54:23;;;;;;;0.00;0.00;;;;;;;26.14;58.15;100669.50;5022219;28;20021;-72
2023/08/06 09:56:48;;;;;;;0.00;0.00;;;;;;;25.78;60.10;100667.22;5018682;28;20037;-72
2023/08/06 09:59:15;;;;;;;0.00;0.00;;;;;;;26.18;58.61;100667.66;5018270;28;20026;-73
2023/08/06 10:01:41;;;;;;;0.00;0.00;;;;;;;26.24;57.62;100673.81;5010437;28;20036;-72
2023/08/06 10:04:11;;;;;;;0.00;0.00;;;;;;;25.17;59.89;100681.44;5022448;28;20048;-73
2023/08/06 10:06:37;;;;;;;0.00;0.00;;;;;;;25.87;58.81;100673.50;5020158;28;20422;-73
2023/08/06 10:09:04;;;;;;;0.00;0.00;;;;;;;26.33;56.94;100667.13;5008035;28;20036;-72
2023/08/06 10:11:30;;;;;;;0.00;0.00;;;;;;;26.87;56.25;100679.03;5025848;28;20104;-72
2023/08/06 10:14:32;;;;;;;0.00;0.00;;;;;;;25.95;58.39;100675.41;5019459;28;20021;-72
2023/08/06 10:16:59;;;;;;;0.00;0.00;;;;;;;26.85;56.39;100670.28;4939531;29;20043;-73
2023/08/06 10:19:25;;;;;;;0.00;0.00;;;;;;;26.17;56.85;100674.34;4939554;29;20042;-72
2023/08/06 10:22:12;;;;;;;0.00;0.00;;;;;;;27.07;55.39;100672.69;4941098;29;20070;-73
2023/08/06 10:24:56;;;;;;;0.00;0.00;;;;;;;25.84;57.41;100676.91;4939672;28;20043;-72
2023/08/06 10:27:54;;;;;;;0.00;0.00;;;;;;;26.12;58.08;100669.03;4939515;29;20039;-73
2023/08/06 10:30:26;;;;;;;0.00;0.00;;;;;;;26.28;57.46;100669.25;4888759;29;20037;-73
2023/08/06 10:32:57;;;;;;;0.00;0.00;;;;;;;26.60;56.74;100674.03;4890433;29;20037;-72
2023/08/06 10:35:50;;;;;;;0.00;0.00;;;;;;;25.86;57.51;100682.09;4890424;29;20033;-71
2023/08/06 10:38:17;;;;;;;0.00;0.00;;;;;;;25.61;59.41;100677.50;4889790;29;20062;-73
2023/08/06 10:41:00;;;;;;;0.00;0.00;;;;;;;26.06;58.46;100673.91;4890715;29;20048;-71
2023/08/06 10:43:29;;;;;;;0.05;0.05;;;;;;;26.27;57.45;100673.97;4890703;29;20047;-73
2023/08/06 10:45:55;;;;;;;0.00;0.00;;;;;;;26.13;56.73;100664.31;4890357;29;20032;-73
2023/08/06 10:48:31;;;;;;;0.00;0.00;;;;;;;25.73;58.12;100670.16;4890491;29;20037;-71
2023/08/06 10:50:56;;;;;;;0.00;0.00;;;;;;;26.49;56.84;100668.16;4889053;29;20066;-73
2023/08/06 10:53:22;;;;;;;0.00;0.00;;;;;;;27.43;53.74;100669.28;4930670;29;20044;-72
2023/08/06 10:55:47;;;;;;;0.00;0.00;;;;;;;27.13;53.17;100670.53;4938166;29;20589;-72
2023/08/06 10:58:15;;;;;;;0.00;0.00;;;;;;;27.66;52.26;100660.22;4938380;29;20032;-73
2023/08/06 11:00:59;;;;;;;0.00;0.00;;;;;;;28.31;51.69;100658.41;4936644;28;20463;-72
2023/08/06 11:03:26;;;;;;;0.00;0.00;;;;;;;27.54;51.92;100654.69;4934573;29;20451;-71
2023/08/06 11:05:52;;;;;;;0.00;0.00;;;;;;;26.08;54.22;100657.06;4977466;28;20021;-72
2023/08/06 11:08:27;;;;;;;0.00;0.00;;;;;;;26.04;57.02;100648.59;5019177;28;20037;-73
2023/08/06 11:10:53;;;;;;;0.00;0.00;;;;;;;27.26;54.67;100641.84;5021834;28;20021;-73
2023/08/06 11:13:21;;;;;;;0.00;0.00;;;;;;;27.85;52.74;100654.16;5020597;28;20107;-75
2023/08/06 11:15:46;;;;;;;0.00;0.00;;;;;;;27.08;54.09;100654.19;5017352;28;20128;-72
2023/08/06 11:18:12;;;;;;;0.00;0.00;;;;;;;26.56;54.75;100653.81;5019738;28;20026;-72
2023/08/06 11:20:39;;;;;;;0.00;0.00;;;;;;;27.25;53.29;100649.31;5009393;28;20042;-72
2023/08/06 11:23:05;;;;;;;0.00;0.00;;;;;;;27.96;51.24;100640.69;5021689;28;20029;-72